Faust — SLKQ — position and weather

sailwx.info

Track history (hours):
 
Tides and Currents Weather Stations Pressure Air Temp Water Temp Dewpoint Dewpoint Depression Visibility Wind Speed Wind Dir Waves Ship Positions

Faust

Last reported at 2016-Apr-28 00:30 UTC. Time now 2016-Apr-28 21:53 UTC.
Position N 45°17' W 125°04'.

Length 227.8 m; beam 32.3 m; draft 9.5 m.

Type: Cargo ship. MMSI: 266260000.

Date/timePositionNaut miles runAvg speedWind from/ knotsBaromVisibWave heightAir tempDewpointWater temp
2016-Apr-28 00:30N 45°17' W 125°04'1414.9
2016-Apr-27 23:33N 45°31' W 125°05'1615.7
2016-Apr-27 22:33N 45°47' W 125°07'2015.8
2016-Apr-27 21:19N 46°07' W 125°08'1215.4
2016-Apr-27 20:33N 46°18' W 125°08'1515.2
2016-Apr-27 19:33N 46°34' W 125°09'1715.2
2016-Apr-27 18:27N 46°51' W 125°10'1415.3
2016-Apr-27 17:32N 47°04' W 125°11'7515.1
2016-Apr-27 12:33N 48°19' W 125°12'1414.3
2016-Apr-27 11:33N 48°31' W 124°59'3015.1
2016-Apr-27 09:33N 48°22' W 124°15'1615.8
2016-Apr-27 08:33N 48°17' W 123°53'1615.9
2016-Apr-27 07:33N 48°14' W 123°29'1111.0
2016-Apr-27 06:33N 48°11' W 123°13'1616.0
2016-Apr-27 05:33N 48°12' W 122°49'1615.9
2016-Apr-27 04:33N 47°59' W 122°35'1515.4
2016-Apr-27 03:33N 47°45' W 122°26'1616.4
2016-Apr-27 02:33N 47°29' W 122°24'1211.5
2016-Apr-27 01:33N 47°17' W 122°25'2 0.4
2016-Apr-26 21:19N 47°16' W 122°23'0 0.0
2016-Apr-26 20:28N 47°16' W 122°23'0 0.0
2016-Apr-26 19:28N 47°16' W 122°23'0 0.0
2016-Apr-26 16:25N 47°16' W 122°23'0 0.0
2016-Apr-26 12:33N 47°16' W 122°23'2 2.2
2016-Apr-26 11:33N 47°17' W 122°25'1110.5
2016-Apr-26 10:33N 47°28' W 122°25'1716.6
2016-Apr-26 09:34N 47°44' W 122°27'1515.3
2016-Apr-26 08:33N 47°58' W 122°36'1614.4
2016-Apr-26 07:28N 48°11' W 122°50'1516.2
2016-Apr-26 06:33N 48°11' W 123°12'1111.0
2016-Apr-26 05:34N 48°12' W 123°29'1413.3
2016-Apr-26 04:31N 48°13' W 123°49'1413.9
2016-Apr-26 03:33N 48°18' W 124°09'  
Track history (hours):
 
Tides and Currents Weather Stations Pressure Air Temp Water Temp Dewpoint Dewpoint Depression Visibility Wind Speed Wind Dir Waves Ship Positions

Faust

Last reported at 2016-Apr-28 00:30 UTC. Time now 2016-Apr-28 21:53 UTC.
Position N 45°17' W 125°04'.

Length 227.8 m; beam 32.3 m; draft 9.5 m.

Type: Cargo ship. MMSI: 266260000.

Date/timePositionNaut miles runAvg speedWind from/ knotsBaromVisibWave heightAir tempDewpointWater temp
2016-Apr-28 00:30N 45°17' W 125°04'1414.9
2016-Apr-27 23:33N 45°31' W 125°05'1615.7
2016-Apr-27 22:33N 45°47' W 125°07'2015.8
2016-Apr-27 21:19N 46°07' W 125°08'1215.4
2016-Apr-27 20:33N 46°18' W 125°08'1515.2
2016-Apr-27 19:33N 46°34' W 125°09'1715.2
2016-Apr-27 18:27N 46°51' W 125°10'1415.3
2016-Apr-27 17:32N 47°04' W 125°11'7515.1
2016-Apr-27 12:33N 48°19' W 125°12'1414.3
2016-Apr-27 11:33N 48°31' W 124°59'3015.1
2016-Apr-27 09:33N 48°22' W 124°15'1615.8
2016-Apr-27 08:33N 48°17' W 123°53'1615.9
2016-Apr-27 07:33N 48°14' W 123°29'1111.0
2016-Apr-27 06:33N 48°11' W 123°13'1616.0
2016-Apr-27 05:33N 48°12' W 122°49'1615.9
2016-Apr-27 04:33N 47°59' W 122°35'1515.4
2016-Apr-27 03:33N 47°45' W 122°26'1616.4
2016-Apr-27 02:33N 47°29' W 122°24'1211.5
2016-Apr-27 01:33N 47°17' W 122°25'2 0.4
2016-Apr-26 21:19N 47°16' W 122°23'0 0.0
2016-Apr-26 20:28N 47°16' W 122°23'0 0.0
2016-Apr-26 19:28N 47°16' W 122°23'0 0.0
2016-Apr-26 16:25N 47°16' W 122°23'0 0.0
2016-Apr-26 12:33N 47°16' W 122°23'2 2.2
2016-Apr-26 11:33N 47°17' W 122°25'1110.5
2016-Apr-26 10:33N 47°28' W 122°25'1716.6
2016-Apr-26 09:34N 47°44' W 122°27'1515.3
2016-Apr-26 08:33N 47°58' W 122°36'1614.4
2016-Apr-26 07:28N 48°11' W 122°50'1516.2
2016-Apr-26 06:33N 48°11' W 123°12'1111.0
2016-Apr-26 05:34N 48°12' W 123°29'1413.3
2016-Apr-26 04:31N 48°13' W 123°49'1413.9
2016-Apr-26 03:33N 48°18' W 124°09'  

Dump ship's entire track history